Latest Weather Observations for Roebourne Airport

IDW60801

Issued at 3:23 pm WST Tuesday 20 April 2021 (issued every 10 minutes, with the page automatically refreshed every 10 minutes)

About weather observations | Map of weather stations | Latest weather observations for WA | Other Formats
Station Details ID: 004090 Name: ROEBOURNE AERO Lat: -20.76 Lon: 117.16 Height: 10.7 m
Data from the previous 72 hours. | See also: Recent months at Roebourne Airport
Date/Time
WST
Temp
°C
App
Temp
°C
Dew
Point
°C
Rel
Hum
%
Delta-T
°C
Wind Press
QNH
hPa
Press
MSL
hPa
Rain since
9am
mm
Dir  Spd
km/h
Gust
km/h
Spd
kts
Gust
kts
20/03:00pm 32.1 30.2 16.8 40 9.7 N 22 35 12 19 1010.7 1010.7 0.0
20/02:30pm 32.3 31.2 17.7 41 9.4 N 20 28 11 15 1010.7 1010.7 0.0
20/02:00pm 32.2 31.1 17.7 42 9.3 N 20 30 11 16 1011.0 1011.0 0.0
20/01:30pm 32.7 31.8 17.7 40 9.6 N 19 28 10 15 1011.1 1011.1 0.0
20/01:00pm 32.5 31.0 16.8 39 10.0 N 20 28 11 15 1011.5 1011.5 0.0
20/12:30pm 32.4 30.9 16.7 39 9.9 NNE 20 32 11 17 1011.8 1011.8 0.0
20/12:00pm 32.8 30.8 17.4 39 9.9 NNE 24 32 13 17 1012.0 1012.0 0.0
20/11:30am 33.1 32.3 16.0 35 10.7 NNE 15 24 8 13 1012.3 1012.3 0.0
20/11:00am 32.3 32.4 14.4 33 10.9 WSW 7 13 4 7 1012.6 1012.6 0.0
20/10:30am 31.6 31.9 13.4 33 10.9 SSE 4 9 2 5 1012.8 1012.8 0.0
20/10:00am 30.3 29.6 13.1 34 10.2 WNW 9 15 5 8 1012.9 1012.9 0.0
20/09:30am 29.5 30.4 16.7 46 8.0 W 7 15 4 8 1012.9 1012.9 0.0
20/09:00am 28.1 29.0 17.6 53 6.6 WSW 9 13 5 7 1013.0 1013.0 2.0
20/08:30am 26.8 27.8 17.8 57 5.7 SW 9 13 5 7 1012.9 1012.9 2.0
20/08:00am 24.9 26.0 18.1 66 4.3 WSW 9 11 5 6 1012.8 1012.8 2.0
20/07:30am 23.0 24.9 18.5 76 2.8 S 6 9 3 5 1012.6 1012.6 2.0
20/07:00am 20.8 21.8 18.7 88 1.3 SW 11 13 6 7 1012.2 1012.2 2.0
20/06:30am 19.8 21.1 17.6 87 1.3 SW 7 11 4 6 1012.2 1012.2 2.0
20/06:00am 20.4 21.8 17.8 85 1.6 NE 7 13 4 7 1011.9 1011.9 2.0
20/05:30am 20.3 21.4 16.7 80 2.2 WSW 6 7 3 4 1011.3 1011.3 2.0
20/05:00am 21.1 22.8 18.1 83 1.9 WSW 6 9 3 5 1011.1 1011.1 2.0
20/04:30am 21.3 22.5 18.3 83 1.9 WSW 9 13 5 7 1011.0 1011.0 2.0
20/04:00am 20.8 21.6 17.4 81 2.1 SW 9 13 5 7 1010.8 1010.8 2.0
20/03:30am 21.8 23.4 18.2 80 2.2 W 7 15 4 8 1010.8 1010.8 2.0
20/03:00am 21.8 22.9 18.8 83 1.9 WNW 11 13 6 7 1010.9 1010.9 2.0
20/02:30am 23.0 24.3 18.5 76 2.8 W 9 13 5 7 1011.1 1011.1 2.0
20/02:00am 23.8 24.2 18.9 74 3.1 W 15 17 8 9 1011.3 1011.3 2.0
20/01:30am 24.1 24.3 19.4 75 3.0 W 17 20 9 11 1011.4 1011.4 2.0
20/01:00am 23.4 24.7 20.2 82 2.1 W 13 15 7 8 1011.7 1011.7 2.0
20/12:30am 23.4 25.5 20.2 82 2.1 W 9 13 5 7 1012.0 1012.0 2.0
20/12:00am 23.2 25.7 21.1 88 1.4 WNW 9 11 5 6 1012.0 1012.0 2.0
 
Date/Time
WST
Temp
°C
App
Temp
°C
Dew
Point
°C
Rel
Hum
%
Delta-T
°C
Wind Press
QNH
hPa
Press
MSL
hPa
Rain since
9am
mm
Dir  Spd
km/h
Gust
km/h
Spd
kts
Gust
kts
19/11:30pm 23.0 26.7 20.7 87 1.5 N 2 7 1 4 1012.2 1012.2 2.0
19/11:00pm 23.8 26.2 21.5 87 1.5 NW 11 11 6 6 1012.3 1012.3 2.0
19/10:30pm 24.2 27.4 21.3 84 1.9 WNW 6 9 3 5 1012.5 1012.5 2.0
19/10:00pm 25.0 27.2 21.9 83 2.1 WNW 13 13 7 7 1012.5 1012.5 2.0
19/09:30pm 25.2 28.3 22.1 83 2.1 NW 9 11 5 6 1012.7 1012.7 2.0
19/09:00pm 25.6 28.6 21.9 80 2.5 NW 9 11 5 6 1012.8 1012.8 2.0
19/08:30pm 26.0 28.1 21.7 77 2.9 WNW 13 15 7 8 1012.8 1012.8 2.0
19/08:00pm 26.5 28.1 21.5 74 3.3 NW 15 19 8 10 1012.5 1012.5 2.0
19/07:30pm 26.8 29.2 21.6 73 3.5 NNW 11 13 6 7 1012.5 1012.5 2.0
19/07:00pm 27.2 28.8 21.5 71 3.8 NW 15 20 8 11 1012.2 1012.2 2.0
19/06:30pm 27.5 28.9 21.8 71 3.8 NNW 17 22 9 12 1011.9 1011.9 2.0
19/06:00pm 27.8 28.6 21.3 67 4.3 NNW 19 26 10 14 1011.6 1011.6 2.0
19/05:30pm 28.7 29.2 21.2 64 5.0 NNW 20 26 11 14 1011.2 1011.2 2.0
19/05:00pm 29.4 29.6 21.4 62 5.4 N 22 30 12 16 1011.2 1011.2 2.0
19/04:30pm 29.6 29.4 21.3 61 5.6 N 24 30 13 16 1011.2 1011.2 2.0
19/04:00pm 30.5 30.5 21.6 59 6.0 NNW 24 33 13 18 1011.1 1011.1 2.0
19/03:30pm 30.4 30.2 20.6 55 6.5 NNW 22 30 12 16 1011.1 1011.1 2.0
19/03:00pm 30.9 30.5 19.3 50 7.6 NNW 20 30 11 16 1011.2 1011.2 2.0
19/02:30pm 28.1 29.0 20.1 62 5.2 NW 15 26 8 14 1011.5 1011.5 2.0
19/02:00pm 30.0 29.1 19.1 52 7.1 NNE 22 30 12 16 1011.8 1011.8 0.0
19/01:30pm 30.8 29.6 18.5 47 7.9 NNE 22 28 12 15 1011.9 1011.9 0.0
19/01:00pm 30.9 30.1 17.9 45 8.3 NNE 19 26 10 14 1012.2 1012.2 0.0
19/12:30pm 31.7 31.0 18.7 46 8.4 N 20 28 11 15 1012.7 1012.7 0.0
19/12:00pm 31.1 32.3 19.1 48 7.8 E 11 17 6 9 1013.0 1013.0 0.0
19/11:30am 31.5 33.2 18.5 46 8.4 SSW 7 11 4 6 1013.7 1013.6 0.0
19/11:00am 31.0 33.1 19.0 48 7.8 SSE 6 9 3 5 1014.4 1014.3 0.0
19/10:30am 30.9 33.0 19.3 50 7.6 SSE 7 13 4 7 1014.9 1014.8 0.0
19/10:00am 30.1 32.9 20.4 56 6.4 SSW 6 11 3 6 1015.3 1015.2 0.0
19/09:30am 29.5 32.7 21.2 61 5.5 SE 6 13 3 7 1015.5 1015.4 0.0
19/09:00am 28.8 31.5 21.3 64 5.0 SE 9 15 5 8 1015.6 1015.5 0.0
19/08:30am 27.9 29.4 20.5 64 4.9 E 13 15 7 8 1015.4 1015.3 0.0
19/08:00am 26.9 28.1 19.8 65 4.6 E 13 19 7 10 1015.3 1015.2 0.0
19/07:30am 25.3 26.3 19.4 70 3.8 ESE 13 19 7 10 1015.3 1015.2 0.0
19/07:00am 23.2 24.7 19.8 81 2.2 ESE 11 13 6 7 1015.0 1014.9 0.0
19/06:30am 22.8 24.0 20.0 84 1.8 E 13 15 7 8 1014.7 1014.6 0.0
19/06:00am 22.3 24.3 20.0 87 1.5 ESE 9 11 5 6 1014.4 1014.3 0.0
19/05:30am 22.3 24.0 20.2 88 1.4 E 11 13 6 7 1014.3 1014.2 0.0
19/05:00am 22.1 23.9 19.6 86 1.6 E 9 9 5 5 1014.1 1014.0 0.0
19/04:30am 22.1 25.6 19.6 86 1.6 CALM 0 0 0 0 1014.0 1013.9 0.0
19/04:00am 22.2 25.5 19.2 83 1.9 CALM 0 0 0 0 1013.9 1013.8 0.0
19/03:30am 23.2 25.9 20.3 84 1.9 SSW 6 7 3 4 1014.0 1013.9 0.0
19/03:00am 23.3 25.8 20.2 83 2.0 SW 7 9 4 5 1014.0 1013.9 0.0
19/02:30am 23.2 25.0 20.3 84 1.9 SW 11 11 6 6 1014.2 1014.1 0.0
19/02:00am 23.4 25.2 20.3 83 2.0 SW 11 13 6 7 1014.5 1014.4 0.0
19/01:30am 23.9 26.0 20.2 80 2.4 SW 9 11 5 6 1014.7 1014.6 0.0
19/01:00am 24.1 25.9 20.4 80 2.4 SW 11 11 6 6 1014.9 1014.8 0.0
19/12:30am 24.4 26.3 20.5 79 2.5 SW 11 13 6 7 1015.1 1015.0 0.0
19/12:00am 24.1 25.9 20.4 80 2.4 SW 11 13 6 7 1015.2 1015.1 0.0
 
Date/Time
WST
Temp
°C
App
Temp
°C
Dew
Point
°C
Rel
Hum
%
Delta-T
°C
Wind Press
QNH
hPa
Press
MSL
hPa
Rain since
9am
mm
Dir  Spd
km/h
Gust
km/h
Spd
kts
Gust
kts
18/11:30pm 24.0 26.2 19.7 77 2.8 SW 7 9 4 5 1015.4 1015.3 0.0
18/11:00pm 24.2 26.4 19.7 76 2.9 SW 7 9 4 5 1015.7 1015.6 0.0
18/10:30pm 24.0 26.2 19.5 76 2.9 SSW 7 9 4 5 1015.8 1015.7 0.0
18/10:00pm 24.7 27.0 19.8 74 3.2 WSW 7 7 4 4 1016.0 1015.9 0.0
18/09:30pm 24.7 26.6 18.6 69 3.9 SW 6 7 3 4 1016.2 1016.1 0.0
18/09:00pm 25.3 27.2 19.0 68 4.0 WSW 7 9 4 5 1016.2 1016.1 0.0
18/08:30pm 26.5 29.0 19.9 67 4.3 NW 6 7 3 4 1016.1 1016.0 0.0
18/08:00pm 26.6 28.6 18.7 62 5.0 NNW 6 9 3 5 1016.1 1016.0 0.0
18/07:30pm 27.7 29.1 19.5 61 5.3 N 11 13 6 7 1015.9 1015.8 0.0
18/07:00pm 28.2 29.2 19.4 59 5.7 N 13 15 7 8 1015.7 1015.6 0.0
18/06:30pm 28.7 28.9 19.3 56 6.1 N 17 20 9 11 1015.4 1015.3 0.0
18/06:00pm 29.1 29.7 19.4 55 6.3 N 15 19 8 10 1015.3 1015.2 0.0
18/05:30pm 29.6 28.9 18.7 52 7.0 N 20 26 11 14 1014.9 1014.8 0.0
18/05:00pm 30.1 28.6 18.5 49 7.5 N 24 30 13 16 1014.7 1014.6 0.0
18/04:30pm 30.6 29.5 18.7 49 7.7 N 22 28 12 15 1014.5 1014.4 0.0
18/04:00pm 30.9 29.1 17.9 45 8.3 NNE 24 30 13 16 1014.5 1014.4 0.0
18/03:30pm 31.5 29.2 16.6 40 9.4 NNE 24 33 13 18 1014.4 1014.3 0.0
18/03:00pm 32.2 28.9 16.1 38 10.1 NNE 28 33 15 18 1014.4 1014.3 0.0
18/02:30pm 32.4 28.7 15.0 35 10.7 NNE 28 35 15 19 1014.6 1014.5 0.0
18/02:00pm 33.0 29.3 15.0 33 11.1 NNE 28 35 15 19 1014.8 1014.7 0.0
18/01:30pm 32.6 28.4 14.7 34 11.0 NNE 30 37 16 20 1015.1 1015.0 0.0
18/01:00pm 33.3 28.3 12.3 28 12.5 NE 30 37 16 20 1015.5 1015.4 0.0
18/12:30pm 33.7 28.1 10.3 24 13.5 ENE 30 39 16 21 1015.8 1015.7 0.0
18/12:00pm 33.5 27.2 8.9 22 13.9 ENE 32 41 17 22 1016.2 1016.1 0.0
18/11:30am 33.5 26.7 7.5 20 14.4 ENE 33 43 18 23 1016.6 1016.5 0.0
18/11:00am 32.3 26.8 10.4 26 12.6 ENE 30 39 16 21 1017.1 1017.0 0.0
18/10:30am 32.0 25.5 8.9 24 13.0 ENE 33 43 18 23 1017.4 1017.3 0.0
18/10:00am 31.4 24.9 10.2 27 12.1 ENE 35 44 19 24 1017.5 1017.4 0.0
18/09:30am 31.9 26.3 10.0 26 12.5 E 30 43 16 23 1017.6 1017.5 0.0
18/09:00am 29.3 26.1 13.1 37 9.6 ESE 22 32 12 17 1017.8 1017.7 0.0
18/08:30am 28.8 26.7 14.6 42 8.6 E 19 28 10 15 1017.7 1017.6 0.0
18/08:00am 27.7 25.8 15.7 48 7.3 ESE 20 24 11 13 1017.5 1017.4 0.0
18/07:30am 25.4 27.6 19.1 68 4.0 SSE 6 7 3 4 1017.1 1017.0 0.0
18/07:00am 22.4 24.1 20.1 87 1.5 S 11 15 6 8 1016.9 1016.8 0.0
18/06:30am 20.6 21.7 18.9 90 1.1 SSW 11 13 6 7 1016.5 1016.4 0.0
18/06:00am 21.2 22.7 18.9 87 1.4 S 9 11 5 6 1016.1 1016.0 0.0
18/05:30am 21.4 23.3 19.0 86 1.5 E 7 9 4 5 1015.8 1015.7 0.0
18/05:00am 21.2 23.2 19.1 88 1.3 E 7 9 4 5 1015.6 1015.5 0.0
18/04:30am 21.2 22.6 18.6 85 1.6 E 9 11 5 6 1015.2 1015.1 0.0
18/04:00am 21.5 24.6 18.7 84 1.8 CALM 0 0 0 0 1014.9 1014.8 0.0
18/03:30am 21.7 24.4 18.7 83 1.9 S 2 7 1 4 1014.9 1014.8 0.0
18/03:00am 22.4 25.7 19.0 81 2.2 CALM 0 0 0 0 1015.0 1014.9 0.0
18/02:30am 23.5 25.4 19.8 80 2.4 SW 9 11 5 6 1015.1 1015.0 0.0
18/02:00am 23.7 25.7 20.0 80 2.4 SW 9 11 5 6 1015.2 1015.1 0.0
18/01:30am 23.9 26.2 20.6 82 2.2 SW 9 11 5 6 1015.3 1015.2 0.0
18/01:00am 23.6 25.5 20.5 83 2.0 S 11 13 6 7 1015.6 1015.5 0.0
18/12:30am 24.2 26.2 20.7 81 2.3 SSW 11 13 6 7 1015.9 1015.8 0.0
18/12:00am 24.7 26.5 20.4 77 2.8 SSW 11 13 6 7 1016.1 1016.0 0.0
 
Date/Time
WST
Temp
°C
App
Temp
°C
Dew
Point
°C
Rel
Hum
%
Delta-T
°C
Wind Press
QNH
hPa
Press
MSL
hPa
Rain since
9am
mm
Dir  Spd
km/h
Gust
km/h
Spd
kts
Gust
kts
17/11:30pm 25.0 27.7 21.3 80 2.4 SW 9 11 5 6 1016.1 1016.0 0.0
17/11:00pm 24.6 27.1 21.1 81 2.3 SSW 9 11 5 6 1016.3 1016.2 0.0
17/10:30pm 25.0 27.3 21.3 80 2.4 SSW 11 11 6 6 1016.4 1016.3 0.0
17/10:00pm 24.6 26.8 20.3 77 2.8 S 9 11 5 6 1016.4 1016.3 0.0
17/09:30pm 25.3 29.1 20.1 73 3.4 CALM 0 0 0 0 1016.5 1016.4 0.0
17/09:00pm 26.0 30.0 20.6 72 3.5 CALM 0 0 0 0 1016.3 1016.2 0.0
17/08:30pm 26.3 30.3 20.6 71 3.7 CALM 0 0 0 0 1016.3 1016.2 0.0
17/08:00pm 27.1 31.3 20.9 69 4.1 CALM 0 0 0 0 1016.1 1016.0 0.0
17/07:30pm 27.7 30.8 21.0 67 4.4 N 6 7 3 4 1015.7 1015.6 0.0
17/07:00pm 28.2 31.2 21.2 65 4.7 N 7 9 4 5 1015.4 1015.3 0.0
17/06:30pm 28.6 30.3 20.9 63 5.1 NNE 13 15 7 8 1015.1 1015.0 0.0
17/06:00pm 29.5 31.0 20.6 58 5.9 NNE 13 15 7 8 1014.9 1014.8 0.0
17/05:30pm 30.5 30.6 19.2 51 7.4 NNE 17 20 9 11 1014.8 1014.7 0.0
17/05:00pm 31.4 31.1 19.1 48 8.0 NNE 19 24 10 13 1014.6 1014.5 0.0
17/04:30pm 32.2 31.4 18.4 44 8.9 NNE 20 28 11 15 1014.6 1014.5 0.0
17/04:00pm 33.0 31.3 17.2 39 10.1 NNE 22 28 12 15 1014.6 1014.5 0.0
17/03:30pm 33.2 30.7 16.1 35 10.8 NNE 24 32 13 17 1014.6 1014.5 0.0

Other formats

Comma delimited format used in spreadsheet applications
http://www.bom.gov.au/fwo/IDW60801/IDW60801.94308.axf

JavaScript Object Notation format (JSON) in row-major order
http://www.bom.gov.au/fwo/IDW60801/IDW60801.94308.json

Data quality

Most of these data are generated automatically and are frequently updated. Quality checks on data are not normally performed. It is possible for incorrect values to appear. Refer to information at About Latest Weather Observations and please check the disclaimer before using these data.